createdAt,value
2017-12-23T00:00:25.359Z,976.71
2017-12-23T00:01:35.350Z,976.77
2017-12-23T00:02:45.066Z,976.8
2017-12-23T00:03:55.046Z,976.77
2017-12-23T00:05:05.031Z,976.71
2017-12-23T00:06:15.015Z,976.72
2017-12-23T00:07:25.009Z,976.76
2017-12-23T00:08:34.987Z,976.78
2017-12-23T00:09:44.696Z,976.78
2017-12-23T00:10:54.415Z,976.69
2017-12-23T00:12:04.132Z,976.71
2017-12-23T00:13:13.859Z,976.67
2017-12-23T00:14:23.837Z,976.58
2017-12-23T00:15:33.817Z,976.55
2017-12-23T00:16:43.771Z,976.52
2017-12-23T00:17:54.151Z,976.52
2017-12-23T00:19:03.868Z,976.55
2017-12-23T00:20:13.844Z,976.51
2017-12-23T00:21:23.822Z,976.5
2017-12-23T00:22:33.813Z,976.49
2017-12-23T00:23:43.802Z,976.55
2017-12-23T00:24:53.784Z,976.42
2017-12-23T00:26:03.767Z,976.55
2017-12-23T00:27:13.489Z,976.38
2017-12-23T00:28:23.469Z,976.45
2017-12-23T00:29:33.183Z,976.48
2017-12-23T00:30:43.220Z,976.53
2017-12-23T00:31:53.204Z,976.44
2017-12-23T00:33:03.181Z,976.36
2017-12-23T00:34:12.896Z,976.39
2017-12-23T00:35:22.876Z,976.45
2017-12-23T00:36:32.855Z,976.51
2017-12-23T00:37:42.834Z,976.55
2017-12-23T00:38:52.552Z,976.46
2017-12-23T00:40:02.533Z,976.37
2017-12-23T00:41:12.513Z,976.38
2017-12-23T00:42:21.962Z,976.4
2017-12-23T00:43:31.945Z,976.24
2017-12-23T00:44:41.934Z,976.27
2017-12-23T00:45:51.913Z,976.2
2017-12-23T00:47:01.686Z,976.08
2017-12-23T00:48:11.666Z,975.96
2017-12-23T00:49:21.690Z,975.85
2017-12-23T00:50:31.671Z,975.87
2017-12-23T00:51:41.714Z,975.91
2017-12-23T00:52:51.694Z,975.92
2017-12-23T00:54:01.671Z,975.91
2017-12-23T00:55:11.654Z,975.84
2017-12-23T00:56:21.635Z,975.76
2017-12-23T00:57:31.625Z,975.71
2017-12-23T00:58:41.605Z,975.6
2017-12-23T00:59:51.588Z,975.61
2017-12-23T01:01:01.568Z,975.61
2017-12-23T01:02:11.550Z,975.57
2017-12-23T01:03:21.542Z,975.56
2017-12-23T01:04:31.256Z,975.61
2017-12-23T01:05:40.973Z,975.6
2017-12-23T01:06:50.955Z,975.6
2017-12-23T01:08:00.933Z,975.57
2017-12-23T01:09:10.651Z,975.45
2017-12-23T01:10:20.634Z,975.49
2017-12-23T01:11:30.611Z,975.51
2017-12-23T01:12:40.591Z,975.53
2017-12-23T01:13:50.311Z,975.56
2017-12-23T01:15:00.293Z,975.59
2017-12-23T01:16:10.271Z,975.64
2017-12-23T01:17:20.250Z,975.67
2017-12-23T01:18:30.226Z,975.74
2017-12-23T01:19:40.208Z,975.87
2017-12-23T01:20:49.928Z,975.8
2017-12-23T01:21:59.913Z,975.72
2017-12-23T01:23:09.898Z,975.67
2017-12-23T01:24:19.883Z,975.66
2017-12-23T01:25:29.863Z,975.73
2017-12-23T01:26:39.843Z,975.75
2017-12-23T01:27:49.833Z,975.64
2017-12-23T01:28:59.808Z,975.64
2017-12-23T01:30:09.522Z,975.61
2017-12-23T01:31:19.503Z,975.51
2017-12-23T01:32:29.481Z,975.45
2017-12-23T01:33:39.459Z,975.29
2017-12-23T01:34:49.491Z,975.21
2017-12-23T01:35:59.213Z,975.22
2017-12-23T01:37:11.196Z,975.25
2017-12-23T01:38:20.642Z,975.25
2017-12-23T01:39:30.623Z,975.39
2017-12-23T01:40:40.613Z,975.42
2017-12-23T01:41:50.590Z,975.34
2017-12-23T01:43:00.573Z,975.29
2017-12-23T01:44:10.565Z,975.23
2017-12-23T01:45:20.551Z,975.17
2017-12-23T01:46:30.532Z,975.02
2017-12-23T01:47:40.511Z,974.95
2017-12-23T01:48:50.491Z,974.85
2017-12-23T01:50:00.476Z,974.84
2017-12-23T01:51:09.936Z,974.85
2017-12-23T01:52:19.911Z,974.93
2017-12-23T01:53:29.904Z,974.88
2017-12-23T01:54:39.879Z,974.85
2017-12-23T01:55:49.861Z,974.76
2017-12-23T01:56:59.835Z,974.81
2017-12-23T01:58:09.818Z,974.8
2017-12-23T01:59:19.808Z,974.77
2017-12-23T02:00:29.522Z,974.73
2017-12-23T02:01:39.501Z,974.71
2017-12-23T02:02:49.479Z,974.73
2017-12-23T02:03:59.459Z,974.67
2017-12-23T02:05:09.171Z,974.6
2017-12-23T02:06:19.147Z,974.53
2017-12-23T02:07:29.127Z,974.54
2017-12-23T02:08:39.109Z,974.63
2017-12-23T02:09:49.085Z,974.6
2017-12-23T02:10:59.064Z,974.52
2017-12-23T02:12:09.050Z,974.49
2017-12-23T02:13:18.769Z,974.47
2017-12-23T02:14:28.798Z,974.44
2017-12-23T02:15:38.519Z,974.38
2017-12-23T02:16:48.505Z,974.28
2017-12-23T02:17:58.483Z,974.18
2017-12-23T02:19:08.461Z,974.14
2017-12-23T02:20:18.442Z,974.07
2017-12-23T02:21:28.156Z,974.07
2017-12-23T02:22:37.880Z,974.09
2017-12-23T02:23:48.224Z,974.11
2017-12-23T02:24:58.198Z,974.1
2017-12-23T02:26:07.915Z,974.09
2017-12-23T02:27:17.686Z,974.09
2017-12-23T02:28:27.669Z,974.03
2017-12-23T02:29:37.650Z,973.91
2017-12-23T02:30:47.631Z,973.88
2017-12-23T02:31:57.350Z,973.74
2017-12-23T02:33:07.330Z,973.78
2017-12-23T02:34:17.052Z,973.71
2017-12-23T02:35:27.040Z,973.58
2017-12-23T02:36:37.028Z,973.5
2017-12-23T02:37:46.751Z,973.45
2017-12-23T02:38:56.731Z,973.47
2017-12-23T02:40:06.710Z,973.44
2017-12-23T02:41:16.434Z,973.47
2017-12-23T02:42:25.881Z,973.38
2017-12-23T02:43:35.871Z,973.31
2017-12-23T02:44:45.861Z,973.22
2017-12-23T02:45:55.840Z,973.19
2017-12-23T02:47:05.881Z,973.13
2017-12-23T02:48:15.870Z,973.1
2017-12-23T02:49:25.857Z,973.02
2017-12-23T02:50:35.835Z,973.05
2017-12-23T02:51:45.840Z,973.15
2017-12-23T02:52:55.839Z,973.17
2017-12-23T02:54:05.559Z,973.09
2017-12-23T02:55:15.538Z,972.98
2017-12-23T02:56:25.528Z,972.92
2017-12-23T02:57:35.248Z,973.04
2017-12-23T02:58:44.959Z,973.02
2017-12-23T02:59:54.938Z,973.11
2017-12-23T03:01:04.661Z,973.12
2017-12-23T03:02:14.374Z,973.08
2017-12-23T03:03:24.097Z,973.02
2017-12-23T03:04:34.072Z,972.96
2017-12-23T03:05:44.050Z,972.91
2017-12-23T03:06:54.045Z,972.86
2017-12-23T03:08:04.094Z,972.81
2017-12-23T03:09:14.074Z,972.77
2017-12-23T03:10:24.053Z,972.71
2017-12-23T03:11:34.037Z,972.73
2017-12-23T03:12:44.016Z,972.79
2017-12-23T03:13:54.000Z,972.85
2017-12-23T03:15:03.980Z,972.84
2017-12-23T03:16:13.843Z,972.78
2017-12-23T03:17:23.826Z,972.77
2017-12-23T03:18:33.805Z,972.84
2017-12-23T03:19:43.780Z,972.85
2017-12-23T03:20:53.767Z,972.72
2017-12-23T03:22:03.530Z,972.62
2017-12-23T03:23:13.510Z,972.6
2017-12-23T03:24:23.569Z,972.63
2017-12-23T03:25:33.549Z,972.63
2017-12-23T03:26:43.527Z,972.69
2017-12-23T03:27:53.506Z,972.67
2017-12-23T03:29:03.497Z,972.61
2017-12-23T03:30:13.532Z,972.53
2017-12-23T03:31:23.528Z,972.47
2017-12-23T03:32:33.517Z,972.45
2017-12-23T03:33:43.495Z,972.48
2017-12-23T03:34:53.478Z,972.49
2017-12-23T03:36:03.457Z,972.36
2017-12-23T03:37:13.445Z,972.34
2017-12-23T03:38:22.903Z,972.37
2017-12-23T03:39:32.889Z,972.23
2017-12-23T03:40:42.867Z,972.12
2017-12-23T03:41:52.849Z,972.17
2017-12-23T03:43:02.879Z,972.15
2017-12-23T03:44:12.866Z,972.09
2017-12-23T03:45:24.847Z,972.02
2017-12-23T03:46:34.827Z,972.01
2017-12-23T03:47:44.804Z,971.99
2017-12-23T03:48:54.780Z,971.9
2017-12-23T03:50:04.763Z,971.99
2017-12-23T03:51:14.479Z,971.94
2017-12-23T03:52:24.461Z,971.94
2017-12-23T03:53:34.441Z,971.92
2017-12-23T03:54:44.418Z,971.81
2017-12-23T03:55:54.395Z,971.77
2017-12-23T03:57:04.374Z,971.72
2017-12-23T03:58:14.084Z,971.69
2017-12-23T03:59:24.068Z,971.6
2017-12-23T04:04:32.321Z,971.69
2017-12-23T04:05:42.301Z,971.62
2017-12-23T04:06:52.278Z,971.68
2017-12-23T04:08:01.741Z,971.63
2017-12-23T04:09:11.451Z,971.59
2017-12-23T04:10:21.435Z,971.52
2017-12-23T04:11:31.416Z,971.5
2017-12-23T04:12:41.396Z,971.5
2017-12-23T04:13:51.380Z,971.5
2017-12-23T04:15:01.358Z,971.57
2017-12-23T04:16:11.333Z,971.52
2017-12-23T04:17:21.051Z,971.5
2017-12-23T04:18:30.768Z,971.64
2017-12-23T04:19:40.744Z,971.54
2017-12-23T04:20:50.725Z,971.61
2017-12-23T04:22:00.447Z,971.55
2017-12-23T04:23:10.162Z,971.52
2017-12-23T04:24:20.139Z,971.53
2017-12-23T04:25:30.126Z,971.46
2017-12-23T04:26:39.841Z,971.37
2017-12-23T04:27:49.832Z,971.29
2017-12-23T04:28:59.816Z,971.34
2017-12-23T04:30:09.795Z,971.22
2017-12-23T04:31:19.512Z,971.25
2017-12-23T04:32:29.507Z,971.27
2017-12-23T04:33:39.488Z,971.21
2017-12-23T04:34:49.461Z,971.25
2017-12-23T04:35:59.177Z,971.23
2017-12-23T04:37:09.219Z,971.19
2017-12-23T04:38:18.671Z,971.2
2017-12-23T04:39:28.382Z,971.09
2017-12-23T04:40:38.356Z,970.96
2017-12-23T04:41:48.332Z,970.96
2017-12-23T04:42:58.307Z,970.99
2017-12-23T04:44:08.339Z,970.97
2017-12-23T04:45:18.320Z,971.02
2017-12-23T04:46:28.299Z,970.99
2017-12-23T04:47:38.284Z,971.01
2017-12-23T04:48:48.260Z,971.07
2017-12-23T04:49:58.248Z,971.04
2017-12-23T04:51:08.228Z,971
2017-12-23T04:52:18.207Z,970.91
2017-12-23T04:53:27.923Z,970.95
2017-12-23T04:54:37.912Z,970.93
2017-12-23T04:55:49.900Z,970.86
2017-12-23T04:56:59.616Z,970.78
2017-12-23T04:58:09.332Z,970.86
2017-12-23T04:59:19.039Z,970.86
2017-12-23T05:00:29.015Z,970.71
2017-12-23T05:01:38.996Z,970.68
2017-12-23T05:02:48.980Z,970.73
2017-12-23T05:03:58.958Z,970.71
2017-12-23T05:05:08.674Z,970.7
2017-12-23T05:06:18.652Z,970.82
2017-12-23T05:07:28.639Z,970.74
2017-12-23T05:08:38.619Z,970.72
2017-12-23T05:09:48.639Z,970.74
2017-12-23T05:10:58.621Z,970.68
2017-12-23T05:12:08.602Z,970.64
2017-12-23T05:13:18.579Z,970.57
2017-12-23T05:14:28.557Z,970.6
2017-12-23T05:15:38.008Z,970.63
2017-12-23T05:16:47.986Z,970.58
2017-12-23T05:17:57.961Z,970.58
2017-12-23T05:19:07.941Z,970.64
2017-12-23T05:20:17.925Z,970.54
2017-12-23T05:21:27.902Z,970.52
2017-12-23T05:22:37.884Z,970.52
2017-12-23T05:23:47.874Z,970.53
2017-12-23T05:24:58.152Z,970.49
2017-12-23T05:26:08.137Z,970.5
2017-12-23T05:27:18.118Z,970.48
2017-12-23T05:28:28.095Z,970.48
2017-12-23T05:29:38.074Z,970.45
2017-12-23T05:30:48.047Z,970.47
2017-12-23T05:31:58.021Z,970.43
2017-12-23T05:33:07.997Z,970.32
2017-12-23T05:34:17.982Z,970.3
2017-12-23T05:35:27.961Z,970.26
2017-12-23T05:36:37.945Z,970.23
2017-12-23T05:37:47.934Z,970.29
2017-12-23T05:38:57.649Z,970.16
2017-12-23T05:40:07.368Z,970.14
2017-12-23T05:41:17.086Z,970.08
2017-12-23T05:42:27.065Z,970.03
2017-12-23T05:43:37.046Z,970.01
2017-12-23T05:44:47.021Z,969.95
2017-12-23T05:45:57.054Z,969.91
2017-12-23T05:47:07.035Z,969.79
2017-12-23T05:48:17.014Z,969.77
2017-12-23T05:49:26.992Z,969.67
2017-12-23T05:50:36.707Z,969.57
2017-12-23T05:51:46.689Z,969.56
2017-12-23T05:52:56.672Z,969.5
2017-12-23T05:54:06.654Z,969.53
2017-12-23T05:55:16.637Z,969.49
2017-12-23T05:56:26.616Z,969.45
2017-12-23T05:57:36.603Z,969.43
2017-12-23T05:58:46.587Z,969.43
2017-12-23T05:59:56.296Z,969.45
2017-12-23T06:01:06.013Z,969.46
2017-12-23T06:02:15.789Z,969.45
2017-12-23T06:03:25.772Z,969.48
2017-12-23T06:04:35.752Z,969.49
2017-12-23T06:05:45.727Z,969.48
2017-12-23T06:06:55.707Z,969.51
2017-12-23T06:08:05.691Z,969.54
2017-12-23T06:09:15.421Z,969.54
2017-12-23T06:10:25.400Z,969.61
2017-12-23T06:11:35.378Z,969.56
2017-12-23T06:12:45.100Z,969.49
2017-12-23T06:13:55.078Z,969.49
2017-12-23T06:15:05.056Z,969.42
2017-12-23T06:16:14.772Z,969.39
2017-12-23T06:17:24.750Z,969.29
2017-12-23T06:18:34.794Z,969.47
2017-12-23T06:19:44.506Z,969.31
2017-12-23T06:20:54.485Z,969.42
2017-12-23T06:22:04.463Z,969.26
2017-12-23T06:23:14.442Z,969.32
2017-12-23T06:24:24.427Z,969.29
2017-12-23T06:25:34.401Z,969.23
2017-12-23T06:26:44.128Z,969.22
2017-12-23T06:27:53.839Z,969.24
2017-12-23T06:29:03.816Z,969.24
2017-12-23T06:30:13.530Z,969.17
2017-12-23T06:31:23.563Z,969.18
2017-12-23T06:32:33.276Z,969.16
2017-12-23T06:33:43.252Z,969.17
2017-12-23T06:34:53.238Z,969.08
2017-12-23T06:36:02.950Z,969.15
2017-12-23T06:37:12.406Z,969.15
2017-12-23T06:38:22.385Z,969.06
2017-12-23T06:39:32.365Z,969.05
2017-12-23T06:40:42.346Z,969.02
2017-12-23T06:41:52.327Z,968.95
2017-12-23T06:43:02.309Z,968.96
2017-12-23T06:44:12.360Z,968.95
2017-12-23T06:45:22.356Z,968.91
2017-12-23T06:46:32.727Z,968.88
2017-12-23T06:47:42.448Z,968.87
2017-12-23T06:48:52.426Z,968.84
2017-12-23T06:50:02.459Z,968.85
2017-12-23T06:51:12.175Z,968.79
2017-12-23T06:52:21.887Z,968.74
2017-12-23T06:53:31.881Z,968.76
2017-12-23T06:54:41.594Z,968.73
2017-12-23T06:55:51.595Z,968.86
2017-12-23T06:57:01.571Z,968.84
2017-12-23T06:58:11.549Z,968.71
2017-12-23T06:59:21.535Z,968.57
2017-12-23T07:00:31.248Z,968.55
2017-12-23T07:01:41.229Z,968.57
2017-12-23T07:02:51.209Z,968.62
2017-12-23T07:04:01.189Z,968.61
2017-12-23T07:05:11.169Z,968.52
2017-12-23T07:06:21.154Z,968.44
2017-12-23T07:07:31.133Z,968.5
2017-12-23T07:08:41.108Z,968.48
2017-12-23T07:09:50.554Z,968.53
2017-12-23T07:11:00.537Z,968.53
2017-12-23T07:12:10.517Z,968.54
2017-12-23T07:13:20.559Z,968.59
2017-12-23T07:14:30.273Z,968.53
2017-12-23T07:15:40.255Z,968.53
2017-12-23T07:16:50.235Z,968.6
2017-12-23T07:17:59.948Z,968.61
2017-12-23T07:19:09.924Z,968.6
2017-12-23T07:20:19.908Z,968.57
2017-12-23T07:21:29.622Z,968.66
2017-12-23T07:22:39.600Z,968.65
2017-12-23T07:23:49.578Z,968.61
2017-12-23T07:24:59.298Z,968.58
2017-12-23T07:26:09.280Z,968.64
2017-12-23T07:27:18.993Z,968.7
2017-12-23T07:28:28.975Z,968.61
2017-12-23T07:29:38.948Z,968.62
2017-12-23T07:30:48.978Z,968.64
2017-12-23T07:31:58.956Z,968.62
2017-12-23T07:33:08.669Z,968.49
2017-12-23T07:34:18.644Z,968.5
2017-12-23T07:35:28.354Z,968.46
2017-12-23T07:36:38.396Z,968.42
2017-12-23T07:37:48.129Z,968.32
2017-12-23T07:38:57.839Z,968.17
2017-12-23T07:40:07.823Z,968.08
2017-12-23T07:41:17.543Z,968.01
2017-12-23T07:42:27.533Z,967.95
2017-12-23T07:43:37.243Z,967.91
2017-12-23T07:44:47.221Z,967.93
2017-12-23T07:45:56.937Z,967.87
2017-12-23T07:47:06.916Z,967.79
2017-12-23T07:48:16.637Z,967.81
2017-12-23T07:49:26.359Z,967.8
2017-12-23T07:50:36.341Z,967.82
2017-12-23T07:51:46.339Z,967.79
2017-12-23T07:52:56.051Z,967.79
2017-12-23T07:54:06.034Z,967.82
2017-12-23T07:55:16.010Z,967.89
2017-12-23T07:56:25.987Z,967.95
2017-12-23T07:57:35.701Z,967.93
2017-12-23T07:58:45.687Z,967.88
2017-12-23T07:59:55.664Z,967.92
2017-12-23T08:01:05.646Z,967.98
2017-12-23T08:02:15.928Z,967.93
2017-12-23T08:03:25.928Z,967.93
2017-12-23T08:04:35.657Z,967.93
2017-12-23T08:05:45.378Z,967.91
2017-12-23T08:06:55.405Z,968.01
2017-12-23T08:08:05.117Z,968.04
2017-12-23T08:09:15.113Z,968.09
2017-12-23T08:10:25.095Z,968.14
2017-12-23T08:11:35.097Z,968.13
2017-12-23T08:12:45.075Z,968.16
2017-12-23T08:13:55.056Z,968.15
2017-12-23T08:15:05.116Z,968.23
2017-12-23T08:16:14.837Z,968.22
2017-12-23T08:17:24.817Z,968.16
2017-12-23T08:18:34.536Z,968.14
2017-12-23T08:19:44.581Z,968.02
2017-12-23T08:20:54.645Z,967.93
2017-12-23T08:22:04.625Z,967.94
2017-12-23T08:23:14.339Z,967.97
2017-12-23T08:24:24.319Z,967.95
2017-12-23T08:25:34.295Z,967.91
2017-12-23T08:26:44.274Z,968.03
2017-12-23T08:27:53.989Z,967.93
2017-12-23T08:29:03.964Z,967.99
2017-12-23T08:30:13.955Z,967.91
2017-12-23T08:31:23.934Z,967.9
2017-12-23T08:32:33.916Z,967.91
2017-12-23T08:33:43.900Z,967.94
2017-12-23T08:34:53.623Z,967.97
2017-12-23T08:36:03.617Z,967.96
2017-12-23T08:37:13.607Z,967.9
2017-12-23T08:38:23.321Z,967.92
2017-12-23T08:39:33.316Z,967.96
2017-12-23T08:40:43.304Z,967.98
2017-12-23T08:41:53.292Z,967.99
2017-12-23T08:43:03.013Z,968.03
2017-12-23T08:44:12.991Z,968.15
2017-12-23T08:45:22.701Z,968.12
2017-12-23T08:46:32.680Z,968.22
2017-12-23T08:47:42.666Z,968.17
2017-12-23T08:48:52.652Z,968.24
2017-12-23T08:50:02.630Z,968.26
2017-12-23T08:51:12.612Z,968.28
2017-12-23T08:52:22.061Z,968.19
2017-12-23T08:53:31.776Z,968.23
2017-12-23T08:54:41.755Z,968.2
2017-12-23T08:55:51.743Z,968.13
2017-12-23T08:57:01.727Z,968.11
2017-12-23T08:58:11.444Z,968.1
2017-12-23T08:59:20.895Z,968.08
2017-12-23T09:00:30.874Z,968.07
2017-12-23T09:01:40.853Z,968.04
2017-12-23T09:02:50.832Z,967.93
2017-12-23T09:04:00.820Z,967.98
2017-12-23T09:05:10.802Z,967.97
2017-12-23T09:06:20.795Z,967.91
2017-12-23T09:07:30.773Z,967.95
2017-12-23T09:08:40.747Z,967.94
2017-12-23T09:09:50.724Z,967.87
2017-12-23T09:11:00.709Z,967.9
2017-12-23T09:12:10.687Z,967.83
2017-12-23T09:13:20.668Z,967.87
2017-12-23T09:14:30.648Z,967.85
2017-12-23T09:15:40.630Z,967.8
2017-12-23T09:16:50.081Z,967.86
2017-12-23T09:17:59.806Z,967.81
2017-12-23T09:19:09.786Z,967.8
2017-12-23T09:20:19.766Z,967.87
2017-12-23T09:21:29.748Z,967.88
2017-12-23T09:22:39.728Z,967.87
2017-12-23T09:23:49.443Z,967.87
2017-12-23T09:24:59.423Z,967.86
2017-12-23T09:26:09.409Z,967.73
2017-12-23T09:27:19.139Z,967.73
2017-12-23T09:28:29.120Z,967.67
2017-12-23T09:29:39.101Z,967.66
2017-12-23T09:30:49.095Z,967.62
2017-12-23T09:31:59.078Z,967.58
2017-12-23T09:33:08.534Z,967.6
2017-12-23T09:34:18.264Z,967.59
2017-12-23T09:35:28.242Z,967.57
2017-12-23T09:36:37.959Z,967.61
2017-12-23T09:37:47.676Z,967.57
2017-12-23T09:38:57.391Z,967.58
2017-12-23T09:40:07.111Z,967.64
2017-12-23T09:41:17.096Z,967.71
2017-12-23T09:42:27.075Z,967.69
2017-12-23T09:43:37.059Z,967.78
2017-12-23T09:44:47.052Z,967.73
2017-12-23T09:45:56.768Z,967.74
2017-12-23T09:47:06.217Z,967.76
2017-12-23T09:48:16.198Z,967.69
2017-12-23T09:49:26.175Z,967.69
2017-12-23T09:50:36.158Z,967.71
2017-12-23T09:51:46.144Z,967.64
2017-12-23T09:52:56.131Z,967.66
2017-12-23T09:54:05.865Z,967.64
2017-12-23T09:55:15.591Z,967.64
2017-12-23T09:56:25.311Z,967.63
2017-12-23T09:57:35.293Z,967.64
2017-12-23T09:58:45.008Z,967.5
2017-12-23T09:59:54.994Z,967.51
2017-12-23T10:01:04.982Z,967.57
2017-12-23T10:02:14.963Z,967.55
2017-12-23T10:03:24.418Z,967.58
2017-12-23T10:04:33.864Z,967.58
2017-12-23T10:05:43.841Z,967.62
2017-12-23T10:06:53.821Z,967.58
2017-12-23T10:08:03.540Z,967.59
2017-12-23T10:09:13.525Z,967.57
2017-12-23T10:10:23.239Z,967.55
2017-12-23T10:11:32.954Z,967.5
2017-12-23T10:12:42.684Z,967.51
2017-12-23T10:13:52.670Z,967.53
2017-12-23T10:15:02.658Z,967.55
2017-12-23T10:16:14.648Z,967.58
2017-12-23T10:17:24.632Z,967.62
2017-12-23T10:18:34.610Z,967.7
2017-12-23T10:19:44.593Z,967.6
2017-12-23T10:20:54.575Z,967.65
2017-12-23T10:22:04.557Z,967.68
2017-12-23T10:23:14.270Z,967.64
2017-12-23T10:24:24.248Z,967.64
2017-12-23T10:25:33.965Z,967.66
2017-12-23T10:26:43.948Z,967.65
2017-12-23T10:27:53.932Z,967.64
2017-12-23T10:29:03.914Z,967.66
2017-12-23T10:30:13.894Z,967.66
2017-12-23T10:31:23.872Z,967.56
2017-12-23T10:32:33.856Z,967.53
2017-12-23T10:33:43.851Z,967.48
2017-12-23T10:34:53.837Z,967.49
2017-12-23T10:36:03.555Z,967.43
2017-12-23T10:37:13.536Z,967.42
2017-12-23T10:38:23.535Z,967.4
2017-12-23T10:39:33.247Z,967.35
2017-12-23T10:40:43.230Z,967.31
2017-12-23T10:41:52.957Z,967.28
2017-12-23T10:43:03.005Z,967.22
2017-12-23T10:44:12.991Z,967.16
2017-12-23T10:45:22.969Z,967.08
2017-12-23T10:46:32.684Z,967.12
2017-12-23T10:47:42.684Z,967.2
2017-12-23T10:48:52.401Z,967.17
2017-12-23T10:50:02.383Z,967.2
2017-12-23T10:51:12.671Z,967.16
2017-12-23T10:52:22.653Z,967.17
2017-12-23T10:53:32.635Z,967.21
2017-12-23T10:54:42.626Z,967.24
2017-12-23T10:55:52.609Z,967.1
2017-12-23T10:57:02.929Z,967.08
2017-12-23T10:58:12.646Z,967.11
2017-12-23T10:59:22.633Z,967.08
2017-12-23T11:00:32.616Z,967.05
2017-12-23T11:01:42.601Z,966.95
2017-12-23T11:02:54.590Z,966.96
2017-12-23T11:04:04.581Z,966.99
2017-12-23T11:05:14.034Z,966.94
2017-12-23T11:06:23.777Z,966.92
2017-12-23T11:07:33.492Z,966.97
2017-12-23T11:08:43.473Z,966.92
2017-12-23T11:09:53.453Z,966.91
2017-12-23T11:11:03.183Z,966.96
2017-12-23T11:12:13.171Z,967
2017-12-23T11:13:23.152Z,967.01
2017-12-23T11:14:32.871Z,966.91
2017-12-23T11:15:42.584Z,966.88
2017-12-23T11:16:52.588Z,966.82
2017-12-23T11:18:02.575Z,966.79
2017-12-23T11:19:12.288Z,966.82
2017-12-23T11:20:22.272Z,966.79
2017-12-23T11:21:32.253Z,966.84
2017-12-23T11:22:42.231Z,966.79
2017-12-23T11:23:52.220Z,966.85
2017-12-23T11:25:02.197Z,966.89
2017-12-23T11:26:12.191Z,966.94
2017-12-23T11:27:22.174Z,966.93
2017-12-23T11:28:32.162Z,966.9
2017-12-23T11:29:42.144Z,966.91
2017-12-23T11:30:52.127Z,966.91
2017-12-23T11:32:02.111Z,966.91
2017-12-23T11:33:11.611Z,966.93
2017-12-23T11:34:21.743Z,966.92
2017-12-23T11:35:31.722Z,966.91
2017-12-23T11:36:41.706Z,966.99
2017-12-23T11:37:51.695Z,967.03
2017-12-23T11:39:01.735Z,967
2017-12-23T11:40:11.452Z,967.06
2017-12-23T11:41:21.168Z,967.06
2017-12-23T11:42:31.149Z,967.05
2017-12-23T11:43:41.132Z,967.08
2017-12-23T11:44:50.585Z,966.96
2017-12-23T11:46:00.303Z,966.89
2017-12-23T11:47:10.024Z,966.93
2017-12-23T11:48:20.007Z,966.89
2017-12-23T11:49:29.989Z,966.8
2017-12-23T11:50:39.975Z,966.79
2017-12-23T11:51:49.966Z,966.71
2017-12-23T11:52:59.943Z,966.76
2017-12-23T11:54:09.927Z,966.82
2017-12-23T11:55:19.913Z,966.88
2017-12-23T11:56:29.897Z,966.88
2017-12-23T11:57:39.949Z,966.93
2017-12-23T11:58:49.929Z,966.85
2017-12-23T11:59:59.914Z,966.74
2017-12-23T12:01:09.367Z,966.71
2017-12-23T12:02:19.093Z,966.71
2017-12-23T12:03:28.821Z,966.76
2017-12-23T12:04:38.861Z,966.72
2017-12-23T12:05:48.848Z,966.7
2017-12-23T12:06:58.837Z,966.66
2017-12-23T12:08:08.584Z,966.68
2017-12-23T12:09:18.565Z,966.72
2017-12-23T12:10:28.286Z,966.68
2017-12-23T12:11:38.269Z,966.66
2017-12-23T12:12:48.257Z,966.67
2017-12-23T12:13:58.239Z,966.69
2017-12-23T12:15:08.315Z,966.66
2017-12-23T12:16:17.768Z,966.51
2017-12-23T12:17:27.217Z,966.53
2017-12-23T12:18:37.214Z,966.44
2017-12-23T12:19:47.202Z,966.45
2017-12-23T12:20:57.190Z,966.42
2017-12-23T12:22:07.254Z,966.48
2017-12-23T12:23:17.239Z,966.62
2017-12-23T12:24:27.247Z,966.72
2017-12-23T12:25:37.239Z,966.73
2017-12-23T12:26:47.227Z,966.7
2017-12-23T12:27:57.211Z,966.62
2017-12-23T12:29:07.198Z,966.6
2017-12-23T12:30:17.183Z,966.54
2017-12-23T12:31:27.166Z,966.59
2017-12-23T12:32:37.150Z,966.48
2017-12-23T12:33:46.605Z,966.44
2017-12-23T12:34:56.326Z,966.4
2017-12-23T12:36:06.106Z,966.47
2017-12-23T12:37:15.829Z,966.46
2017-12-23T12:38:25.810Z,966.41
2017-12-23T12:39:35.794Z,966.41
2017-12-23T12:40:45.778Z,966.37
2017-12-23T12:41:55.762Z,966.34
2017-12-23T12:43:05.226Z,966.3
2017-12-23T12:44:14.951Z,966.27
2017-12-23T12:45:24.936Z,966.15
2017-12-23T12:46:34.922Z,965.97
2017-12-23T12:47:44.910Z,965.89
2017-12-23T12:48:54.364Z,965.83
2017-12-23T12:50:04.347Z,965.78
2017-12-23T12:51:14.386Z,965.79
2017-12-23T12:52:24.430Z,965.75
2017-12-23T12:53:34.417Z,965.78
2017-12-23T12:54:44.404Z,965.8
2017-12-23T12:55:54.388Z,965.71
2017-12-23T12:57:04.371Z,965.75
2017-12-23T12:58:14.143Z,965.78
2017-12-23T12:59:24.132Z,965.76
2017-12-23T13:00:34.116Z,965.75
2017-12-23T13:01:43.871Z,965.79
2017-12-23T13:02:53.861Z,965.84
2017-12-23T13:04:03.849Z,965.76
2017-12-23T13:05:14.136Z,965.73
2017-12-23T13:06:23.590Z,965.71
2017-12-23T13:07:33.579Z,965.63
2017-12-23T13:08:43.298Z,965.56
2017-12-23T13:09:53.017Z,965.56
2017-12-23T13:11:03.004Z,965.55
2017-12-23T13:12:12.995Z,965.56
2017-12-23T13:13:22.714Z,965.58
2017-12-23T13:14:32.436Z,965.52
2017-12-23T13:15:42.464Z,965.41
2017-12-23T13:16:52.447Z,965.42
2017-12-23T13:18:02.430Z,965.46
2017-12-23T13:19:12.423Z,965.42
2017-12-23T13:20:22.406Z,965.42
2017-12-23T13:21:32.410Z,965.43
2017-12-23T13:22:42.394Z,965.44
2017-12-23T13:23:52.114Z,965.41
2017-12-23T13:25:02.162Z,965.32
2017-12-23T13:26:12.153Z,965.22
2017-12-23T13:27:21.882Z,965.19
2017-12-23T13:28:31.866Z,965.17
2017-12-23T13:29:41.870Z,965.17
2017-12-23T13:30:52.007Z,965.16
2017-12-23T13:32:02.000Z,965.13
2017-12-23T13:33:11.720Z,965.19
2017-12-23T13:34:21.442Z,965.22
2017-12-23T13:35:31.158Z,965.19
2017-12-23T13:36:41.137Z,965.3
2017-12-23T13:37:50.852Z,965.32
2017-12-23T13:39:00.838Z,965.36
2017-12-23T13:40:10.887Z,965.4
2017-12-23T13:41:20.875Z,965.45
2017-12-23T13:42:30.862Z,965.51
2017-12-23T13:43:40.846Z,965.54
2017-12-23T13:44:50.830Z,965.55
2017-12-23T13:46:00.822Z,965.48
2017-12-23T13:47:10.539Z,965.5
2017-12-23T13:48:20.259Z,965.44
2017-12-23T13:49:30.245Z,965.41
2017-12-23T13:50:40.231Z,965.42
2017-12-23T13:51:52.223Z,965.45
2017-12-23T13:53:01.943Z,965.41
2017-12-23T13:54:11.984Z,965.38
2017-12-23T13:55:21.973Z,965.28
2017-12-23T13:56:31.957Z,965.32
2017-12-23T13:57:41.938Z,965.35
2017-12-23T13:58:51.663Z,965.34
2017-12-23T14:00:01.119Z,965.38
2017-12-23T14:01:10.850Z,965.33
2017-12-23T14:02:20.303Z,965.3
2017-12-23T14:03:30.292Z,965.32
2017-12-23T14:04:40.288Z,965.32
2017-12-23T14:05:50.283Z,965.34
2017-12-23T14:07:00.264Z,965.31
2017-12-23T14:08:10.249Z,965.31
2017-12-23T14:09:20.234Z,965.24
2017-12-23T14:10:30.216Z,965.22
2017-12-23T14:11:40.213Z,965.17
2017-12-23T14:12:50.197Z,965.16
2017-12-23T14:14:00.183Z,965.17
2017-12-23T14:15:10.166Z,965.12
2017-12-23T14:16:19.890Z,965.1
2017-12-23T14:17:29.872Z,965.12
2017-12-23T14:18:39.857Z,965.13
2017-12-23T14:19:49.845Z,965.14
2017-12-23T14:20:59.828Z,965.19
2017-12-23T14:22:09.547Z,965.13
2017-12-23T14:23:19.541Z,965.16
2017-12-23T14:24:29.524Z,965.14
2017-12-23T14:25:39.514Z,965.2
2017-12-23T14:26:49.498Z,965.22
2017-12-23T14:27:59.484Z,965.19
2017-12-23T14:29:09.467Z,965.17
2017-12-23T14:30:19.456Z,965.1
2017-12-23T14:31:29.179Z,965.11
2017-12-23T14:32:39.160Z,965.1
2017-12-23T14:33:49.156Z,965.08
2017-12-23T14:34:59.138Z,965.03
2017-12-23T14:36:09.123Z,965.03
2017-12-23T14:37:19.111Z,965.05
2017-12-23T14:38:29.097Z,965